createdAt,value
2022-08-28T14:06:14.608Z,99690.88
2022-08-28T14:08:47.737Z,99690.47
2022-08-28T14:11:20.115Z,99695.19
2022-08-28T14:13:55.957Z,99690.73
2022-08-28T14:16:29.448Z,99695.70
2022-08-28T14:19:05.728Z,99694.53
2022-08-28T14:21:40.905Z,99695.80
2022-08-28T14:24:13.944Z,99694.31
2022-08-28T14:26:47.445Z,99702.03
2022-08-28T14:29:21.086Z,99698.65
2022-08-28T14:31:54.005Z,99696.69
2022-08-28T14:34:27.657Z,99698.08
2022-08-28T14:37:00.160Z,99697.19
2022-08-28T14:39:33.825Z,99701.77
2022-08-28T14:42:12.992Z,99698.39
2022-08-28T14:44:44.320Z,99699.42
2022-08-28T14:47:17.291Z,99699.08
2022-08-28T14:49:49.748Z,99708.20
2022-08-28T14:52:23.135Z,99703.89
2022-08-28T14:54:55.735Z,99706.25
2022-08-28T14:57:28.260Z,99704.47
2022-08-28T15:00:00.907Z,99711.31
2022-08-28T15:02:33.481Z,99707.03
2022-08-28T15:05:06.273Z,99710.31
2022-08-28T15:07:39.410Z,99713.83
2022-08-28T15:10:13.762Z,99707.91
2022-08-28T15:12:46.789Z,99703.63
2022-08-28T15:15:20.923Z,99715.91
2022-08-28T15:17:54.240Z,99713.00
2022-08-28T15:20:27.796Z,99721.22
2022-08-28T15:23:00.429Z,99726.69
2022-08-28T15:25:34.121Z,99724.23
2022-08-28T15:28:06.842Z,99722.93
2022-08-28T15:30:41.941Z,99726.88
2022-08-28T15:33:16.363Z,99732.22
2022-08-28T15:35:49.302Z,99730.12
2022-08-28T15:38:22.104Z,99741.29
2022-08-28T15:41:12.117Z,99730.27
2022-08-28T15:43:47.784Z,99728.45
2022-08-28T15:46:18.746Z,99729.04
2022-08-28T15:48:54.455Z,99732.40
2022-08-28T15:51:26.023Z,99725.74
2022-08-28T15:53:59.163Z,99728.70
2022-08-28T15:56:31.584Z,99721.27
2022-08-28T15:59:04.631Z,99724.52
2022-08-28T16:01:38.733Z,99723.97
2022-08-28T16:04:12.634Z,99728.45
2022-08-28T16:06:46.297Z,99734.13
2022-08-28T16:09:18.807Z,99729.76
2022-08-28T16:11:51.632Z,99732.34
2022-08-28T16:14:24.269Z,99738.24
2022-08-28T16:16:56.708Z,99749.97
2022-08-28T16:19:29.282Z,99747.84
2022-08-28T16:22:01.978Z,99742.89
2022-08-28T16:24:34.680Z,99738.31
2022-08-28T16:27:09.703Z,99752.02
2022-08-28T16:29:43.112Z,99747.10
2022-08-28T16:32:18.171Z,99751.42
2022-08-28T16:34:50.933Z,99752.34
2022-08-28T16:37:24.578Z,99758.05
2022-08-28T16:39:58.100Z,99754.16
2022-08-28T16:42:32.838Z,99762.02
2022-08-28T16:45:05.527Z,99762.02
2022-08-28T16:47:38.946Z,99763.23
2022-08-28T16:50:14.824Z,99762.77
2022-08-28T16:52:48.145Z,99772.61
2022-08-28T16:55:21.346Z,99769.44
2022-08-28T16:57:56.211Z,99772.29
2022-08-28T17:00:29.865Z,99780.19
2022-08-28T17:03:02.697Z,99778.09
2022-08-28T17:05:35.481Z,99777.95
2022-08-28T17:08:11.128Z,99786.41
2022-08-28T17:10:44.226Z,99784.54
2022-08-28T17:13:17.241Z,99797.56
2022-08-28T17:15:50.761Z,99798.75
2022-08-28T17:18:23.567Z,99795.83
2022-08-28T17:21:13.998Z,99796.73
2022-08-28T17:23:47.911Z,99794.70
2022-08-28T17:26:20.610Z,99808.38
2022-08-28T17:28:53.261Z,99811.26
2022-08-28T17:31:25.730Z,99811.63
2022-08-28T17:33:58.439Z,99823.13
2022-08-28T17:36:33.483Z,99819.75
2022-08-28T17:39:09.221Z,99819.56
2022-08-28T17:41:43.547Z,99830.23
2022-08-28T17:44:16.249Z,99835.13
2022-08-28T17:46:48.947Z,99835.27
2022-08-28T17:49:23.782Z,99836.45
2022-08-28T17:51:56.992Z,99832.44
2022-08-28T17:54:30.133Z,99838.54
2022-08-28T17:57:02.885Z,99833.84
2022-08-28T17:59:36.006Z,99833.65
2022-08-28T18:02:08.677Z,99833.78
2022-08-28T18:04:41.399Z,99832.53
2022-08-28T18:07:15.248Z,99838.27
2022-08-28T18:09:48.496Z,99844.66
2022-08-28T18:12:20.991Z,99840.34
2022-08-28T18:14:54.172Z,99840.22
2022-08-28T18:17:28.516Z,99844.19
2022-08-28T18:20:00.912Z,99841.34
2022-08-28T18:22:34.066Z,99835.30
2022-08-28T18:25:08.058Z,99843.41
2022-08-28T18:27:40.502Z,99835.23
2022-08-28T18:30:13.890Z,99837.66
2022-08-28T18:32:47.204Z,99835.98
2022-08-28T18:35:19.843Z,99836.71
2022-08-28T18:37:54.487Z,99835.03
2022-08-28T18:40:27.827Z,99840.24
2022-08-28T18:43:00.763Z,99841.84
2022-08-28T18:45:34.044Z,99837.14
2022-08-28T18:48:08.239Z,99835.03
2022-08-28T18:50:45.687Z,99833.73
2022-08-28T18:53:21.081Z,99836.55
2022-08-28T18:55:55.219Z,99836.34
2022-08-28T18:58:29.020Z,99834.22
2022-08-28T19:01:03.549Z,99825.08
2022-08-28T19:03:36.250Z,99817.13
2022-08-28T19:06:11.592Z,99823.81
2022-08-28T19:08:46.258Z,99817.73
2022-08-28T19:11:20.558Z,99809.36
2022-08-28T19:13:54.056Z,99805.30
2022-08-28T19:16:26.968Z,99804.27
2022-08-28T19:18:59.908Z,99807.86
2022-08-28T19:21:34.945Z,99812.30
2022-08-28T19:24:08.625Z,99805.81
2022-08-28T19:26:41.974Z,99811.37
2022-08-28T19:29:16.019Z,99806.58
2022-08-28T19:31:52.230Z,99802.44
2022-08-28T19:34:25.218Z,99799.67
2022-08-28T19:36:58.357Z,99794.58
2022-08-28T19:39:31.395Z,99798.55
2022-08-28T19:42:04.637Z,99800.38
2022-08-28T19:44:44.060Z,99796.23
2022-08-28T19:47:17.660Z,99793.77
2022-08-28T19:49:55.158Z,99804.94
2022-08-28T19:52:30.938Z,99802.27
2022-08-28T19:55:06.194Z,99807.37
2022-08-28T19:57:38.992Z,99806.03
2022-08-28T20:00:15.715Z,99804.66
2022-08-28T20:02:50.114Z,99804.78
2022-08-28T20:05:23.377Z,99811.48
2022-08-28T20:07:56.508Z,99805.26
2022-08-28T20:10:32.684Z,99806.30
2022-08-28T20:13:05.914Z,99793.56
2022-08-28T20:15:40.912Z,99803.14
2022-08-28T20:18:14.337Z,99799.65
2022-08-28T20:20:49.536Z,99801.98
2022-08-28T20:23:22.618Z,99802.63
2022-08-28T20:25:55.807Z,99806.77
2022-08-28T20:28:28.725Z,99805.94
2022-08-28T20:31:01.566Z,99801.89
2022-08-28T20:33:34.879Z,99802.84
2022-08-28T20:36:11.877Z,99806.25
2022-08-28T20:38:44.534Z,99799.12
2022-08-28T20:41:19.487Z,99799.38
2022-08-28T20:43:52.147Z,99807.66
2022-08-28T20:46:25.731Z,99801.25
2022-08-28T20:48:58.588Z,99808.67
2022-08-28T20:51:49.483Z,99801.64
2022-08-28T20:54:32.127Z,99803.97
2022-08-28T20:57:07.900Z,99811.83
2022-08-28T20:59:42.261Z,99807.59
2022-08-28T21:02:24.854Z,99805.17
2022-08-28T21:04:59.560Z,99805.39
2022-08-28T21:07:33.890Z,99808.48
2022-08-28T21:10:08.173Z,99804.44
2022-08-28T21:12:41.323Z,99807.50
2022-08-28T21:15:14.222Z,99811.52
2022-08-28T21:17:48.540Z,99808.33
2022-08-28T21:20:23.051Z,99811.70
2022-08-28T21:22:57.286Z,99824.38
2022-08-28T21:25:30.768Z,99833.61
2022-08-28T21:28:04.340Z,99835.20
2022-08-28T21:30:38.361Z,99832.54
2022-08-28T21:33:12.403Z,99830.42
2022-08-28T21:35:46.564Z,99833.52
2022-08-28T21:38:20.200Z,99831.95
2022-08-28T21:40:52.564Z,99826.87
2022-08-28T21:43:24.957Z,99811.68
2022-08-28T21:46:00.806Z,99819.63
2022-08-28T21:48:35.687Z,99822.14
2022-08-28T21:51:14.107Z,99821.83
2022-08-28T21:53:47.213Z,99824.59
2022-08-28T21:56:28.049Z,99831.67
2022-08-28T21:59:01.282Z,99829.73
2022-08-28T22:01:34.172Z,99828.69
2022-08-28T22:04:08.710Z,99825.80
2022-08-28T22:06:42.224Z,99833.58
2022-08-28T22:09:14.843Z,99829.73
2022-08-28T22:11:47.768Z,99831.97
2022-08-28T22:14:21.537Z,99821.57
2022-08-28T22:16:54.054Z,99813.03
2022-08-28T22:19:29.103Z,99815.05
2022-08-28T22:22:19.840Z,99824.42
2022-08-28T22:24:52.249Z,99827.80
2022-08-28T22:27:25.987Z,99841.37
2022-08-28T22:29:59.183Z,99841.39
2022-08-28T22:32:31.639Z,99841.34
2022-08-28T22:35:04.168Z,99837.84
2022-08-28T22:37:47.806Z,99827.53
2022-08-28T22:40:21.727Z,99826.97
2022-08-28T22:42:55.802Z,99822.91
2022-08-28T22:45:29.806Z,99822.91
2022-08-28T22:48:02.313Z,99823.00
2022-08-28T22:50:36.189Z,99824.16
2022-08-28T22:53:09.437Z,99828.95
2022-08-28T22:55:44.540Z,99825.41
2022-08-28T22:58:17.436Z,99824.03
2022-08-28T23:00:51.141Z,99836.03
2022-08-28T23:03:25.798Z,99838.80
2022-08-28T23:05:58.742Z,99841.25
2022-08-28T23:11:13.963Z,99825.36
2022-08-28T23:13:48.523Z,99839.81
2022-08-28T23:16:22.599Z,99833.65
2022-08-28T23:19:13.055Z,99838.70
2022-08-28T23:21:30.092Z,99832.96
2022-08-28T23:24:02.482Z,99828.69
2022-08-28T23:26:36.687Z,99829.28
2022-08-28T23:29:10.447Z,99830.23
2022-08-28T23:31:44.824Z,99832.16
2022-08-28T23:34:17.277Z,99832.77
2022-08-28T23:36:50.219Z,99827.92
2022-08-28T23:39:22.823Z,99828.64
2022-08-28T23:41:57.410Z,99828.59
2022-08-28T23:44:30.883Z,99832.86
2022-08-28T23:47:03.958Z,99834.55
2022-08-28T23:49:42.863Z,99830.62
2022-08-28T23:52:13.721Z,99827.77
2022-08-28T23:54:46.548Z,99834.32
2022-08-28T23:57:19.491Z,99835.15
2022-08-28T23:59:52.013Z,99834.26
